Time;durP1;ratioP1;P1;durP2;ratioP2;P2;SDS_P1;SDS_P2;PMS_P1;PMS_P2;Temp;Humidity;BMP_temperature;BMP_pressure;BME280_temperature;BME280_humidity;BME280_pressure;Samples;Min_cycle;Max_cycle;Signal;HPM_P1;HPM_P2
2022/07/14 00:02:10;;;;;;;25.58;6.78;;;;;;;14.46;100.00;164346.34;5013498;28;20037;-63
2022/07/14 00:04:35;;;;;;;17.25;6.13;;;;;;;14.47;100.00;164349.06;4999386;28;20034;-63
2022/07/14 00:07:01;;;;;;;18.52;6.85;;;;;;;14.37;100.00;164322.00;5002227;28;20026;-63
2022/07/14 00:09:27;;;;;;;19.42;6.50;;;;;;;14.46;100.00;164346.34;4997162;28;20060;-62
2022/07/14 00:11:52;;;;;;;12.32;4.20;;;;;;;14.48;100.00;164351.78;5013558;28;20014;-64
2022/07/14 00:14:17;;;;;;;14.63;4.93;;;;;;;14.44;100.00;164342.25;5012912;28;20030;-62
2022/07/14 00:16:43;;;;;;;22.35;5.18;;;;;;;14.43;100.00;164338.22;5007275;28;20049;-62
2022/07/14 00:19:08;;;;;;;27.55;6.70;;;;;;;14.44;100.00;164340.94;5005302;28;20026;-62
2022/07/14 00:21:33;;;;;;;12.80;5.68;;;;;;;14.41;100.00;164332.78;4992180;28;20428;-64
2022/07/14 00:23:59;;;;;;;22.38;6.18;;;;;;;14.35;100.00;164316.56;4993655;28;20054;-64
2022/07/14 00:26:24;;;;;;;25.23;6.05;;;;;;;14.28;100.00;164300.34;4997275;28;20038;-66
2022/07/14 00:28:49;;;;;;;26.30;7.80;;;;;;;14.22;100.00;164282.78;5012758;28;20057;-63
2022/07/14 00:31:15;;;;;;;22.23;6.82;;;;;;;14.18;100.00;164273.31;4997870;28;20046;-64
2022/07/14 00:33:40;;;;;;;28.85;8.95;;;;;;;14.16;100.00;164266.50;5001220;28;20433;-64
2022/07/14 00:36:07;;;;;;;16.27;5.68;;;;;;;14.11;100.00;164254.38;4994273;28;20452;-64
2022/07/14 00:38:32;;;;;;;18.48;5.50;;;;;;;14.05;100.00;164239.47;5013251;28;20049;-64
2022/07/14 00:40:57;;;;;;;24.08;6.30;;;;;;;14.04;100.00;164235.38;5011533;28;20038;-64
2022/07/14 00:43:23;;;;;;;23.67;4.75;;;;;;;14.02;100.00;164230.03;5009862;28;20025;-65
2022/07/14 00:45:48;;;;;;;11.65;4.78;;;;;;;13.96;100.00;164215.13;4992012;28;20049;-65
2022/07/14 00:48:14;;;;;;;20.23;7.57;;;;;;;13.90;100.00;164200.25;5011635;28;20092;-65
2022/07/14 00:50:43;;;;;;;26.42;6.68;;;;;;;13.86;100.00;164189.44;5010976;28;20054;-64
2022/07/14 00:53:10;;;;;;;22.30;5.80;;;;;;;13.85;100.00;164186.72;5005661;28;20035;-65
2022/07/14 00:55:36;;;;;;;25.17;5.57;;;;;;;13.72;100.00;164151.56;4991562;28;20046;-64
2022/07/14 00:58:02;;;;;;;20.48;6.53;;;;;;;13.90;100.00;164200.25;5010512;28;20068;-64
2022/07/14 01:00:27;;;;;;;18.98;6.93;;;;;;;13.94;100.00;164211.09;5003702;28;20038;-65
2022/07/14 01:02:53;;;;;;;21.63;6.22;;;;;;;13.95;100.00;164213.78;5004653;28;20436;-64
2022/07/14 01:05:18;;;;;;;19.40;6.88;;;;;;;13.96;100.00;164216.47;4991880;28;20045;-65
2022/07/14 01:07:43;;;;;;;14.43;5.15;;;;;;;13.95;100.00;164213.78;5008516;28;20045;-65
2022/07/14 01:10:10;;;;;;;23.80;5.53;;;;;;;13.92;100.00;164204.34;5009125;28;20444;-64
2022/07/14 01:12:36;;;;;;;17.77;5.70;;;;;;;13.92;100.00;164205.66;5012422;28;20037;-64
2022/07/14 01:15:02;;;;;;;17.42;6.93;;;;;;;13.90;100.00;164200.25;5010917;28;20440;-65
2022/07/14 01:17:27;;;;;;;18.33;4.97;;;;;;;13.92;100.00;164205.66;4992877;28;20129;-65
2022/07/14 01:19:53;;;;;;;21.60;4.97;;;;;;;13.86;100.00;164189.44;5003345;28;20038;-64
2022/07/14 01:22:18;;;;;;;26.88;5.43;;;;;;;13.84;100.00;164182.69;5011922;28;20041;-64
2022/07/14 01:24:44;;;;;;;17.77;6.30;;;;;;;13.89;100.00;164196.19;5010844;28;20032;-65
2022/07/14 01:27:11;;;;;;;24.67;6.85;;;;;;;13.92;100.00;164205.66;5011924;28;20108;-65
2022/07/14 01:29:36;;;;;;;20.92;5.20;;;;;;;14.02;100.00;164230.03;4999574;28;20390;-65
2022/07/14 01:32:02;;;;;;;20.42;4.93;;;;;;;14.08;100.00;164246.25;4992467;28;20061;-65
2022/07/14 01:34:27;;;;;;;25.55;5.68;;;;;;;14.08;100.00;164246.25;4991148;28;20114;-63
2022/07/14 01:36:52;;;;;;;26.35;7.35;;;;;;;14.07;100.00;164243.53;4994012;28;21980;-63
2022/07/14 01:39:18;;;;;;;13.85;4.90;;;;;;;14.08;100.00;164246.25;5003782;28;20030;-63
2022/07/14 01:41:45;;;;;;;30.58;5.78;;;;;;;14.10;100.00;164251.66;4990850;28;20068;-63
2022/07/14 01:44:11;;;;;;;13.50;4.68;;;;;;;14.10;100.00;164251.66;4990598;28;20116;-63
2022/07/14 01:46:37;;;;;;;18.77;5.07;;;;;;;14.13;100.00;164259.75;4997517;28;20034;-63
2022/07/14 01:49:04;;;;;;;22.65;8.18;;;;;;;13.99;100.00;164221.88;5005297;28;20026;-63
2022/07/14 01:51:29;;;;;;;15.70;4.32;;;;;;;14.14;100.00;164262.47;4990575;28;20042;-63
2022/07/14 01:53:54;;;;;;;25.73;5.57;;;;;;;14.10;100.00;164251.66;4992298;28;20157;-63
2022/07/14 01:56:21;;;;;;;17.25;7.63;;;;;;;14.04;100.00;164236.78;4990579;28;20047;-63
2022/07/14 01:58:46;;;;;;;19.65;5.13;;;;;;;13.98;100.00;164219.16;4992771;28;20026;-62
2022/07/14 02:03:57;;;;;;;21.38;6.10;;;;;;;13.71;100.00;164150.19;5012080;28;20036;-62
2022/07/14 02:06:23;;;;;;;14.95;5.75;;;;;;;13.49;100.00;164093.41;5009233;28;20042;-62
2022/07/14 02:08:49;;;;;;;18.23;5.20;;;;;;;13.51;100.00;164097.50;5003603;28;20367;-62
2022/07/14 02:13:58;;;;;;;20.05;5.28;;;;;;;13.36;100.00;164056.88;4992572;28;20092;-63
2022/07/14 02:16:24;;;;;;;15.95;5.80;;;;;;;13.35;100.00;164054.16;5014063;28;20046;-63
2022/07/14 02:18:49;;;;;;;19.77;6.22;;;;;;;13.37;100.00;164059.53;5007700;28;20030;-63
2022/07/14 02:21:14;;;;;;;17.25;5.75;;;;;;;13.40;100.00;164069.09;4993816;28;20038;-62
2022/07/14 02:23:40;;;;;;;14.40;6.07;;;;;;;13.45;100.00;164082.59;4996191;28;20056;-63
2022/07/14 02:26:14;;;;;;;16.30;6.68;;;;;;;13.53;100.00;164101.53;4994041;28;20038;-63
2022/07/14 02:28:40;;;;;;;20.67;7.57;;;;;;;13.58;100.00;164116.41;5002980;28;20385;-63
2022/07/14 02:31:07;;;;;;;22.55;5.38;;;;;;;13.49;100.00;164092.06;5013743;28;20034;-62
2022/07/14 02:33:32;;;;;;;23.05;7.50;;;;;;;13.67;100.00;164138.00;5008349;28;20046;-62
2022/07/14 02:35:58;;;;;;;20.45;6.75;;;;;;;13.68;100.00;164140.72;4993966;28;20077;-63
2022/07/14 02:38:23;;;;;;;19.55;6.47;;;;;;;13.62;100.00;164127.22;5011611;28;20509;-63
2022/07/14 02:40:48;;;;;;;22.55;6.82;;;;;;;13.58;100.00;164115.03;5013805;28;20390;-62
2022/07/14 02:43:14;;;;;;;19.60;5.78;;;;;;;13.51;100.00;164097.50;5014682;28;20030;-63
2022/07/14 02:45:39;;;;;;;16.48;5.45;;;;;;;13.28;100.00;164037.94;4995351;28;20277;-63
2022/07/14 02:48:08;;;;;;;21.30;5.20;;;;;;;13.23;100.00;164024.38;4997913;28;20033;-63
2022/07/14 02:50:33;;;;;;;15.95;4.75;;;;;;;13.09;100.00;163986.53;5009589;28;20097;-63
2022/07/14 02:52:59;;;;;;;13.32;4.75;;;;;;;12.97;100.00;163955.44;4995362;28;20026;-63
2022/07/14 02:55:24;;;;;;;27.75;10.05;;;;;;;12.79;100.00;163908.13;5000937;28;20173;-61
2022/07/14 02:57:50;;;;;;;15.00;5.68;;;;;;;12.60;100.00;163859.50;5013806;28;20033;-62
2022/07/14 03:00:15;;;;;;;15.95;5.63;;;;;;;12.44;100.00;163817.59;4993765;28;20034;-62
2022/07/14 03:02:41;;;;;;;14.90;6.22;;;;;;;12.30;100.00;163779.75;4995260;28;20058;-62
2022/07/14 03:05:07;;;;;;;14.55;6.57;;;;;;;12.17;100.00;163746.00;4993277;28;20034;-62
2022/07/14 03:07:32;;;;;;;15.40;5.22;;;;;;;12.03;100.00;163710.84;4995208;28;20030;-62
2022/07/14 03:09:57;;;;;;;16.30;6.63;;;;;;;11.86;100.00;163664.91;5010970;28;20417;-62
2022/07/14 03:12:23;;;;;;;23.33;7.57;;;;;;;11.83;100.00;163658.16;5014150;28;20493;-62
2022/07/14 03:14:48;;;;;;;19.98;6.38;;;;;;;11.77;100.00;163640.56;5012032;28;20064;-62
2022/07/14 03:17:14;;;;;;;18.27;6.50;;;;;;;11.60;100.00;163597.31;4994784;28;20029;-62
2022/07/14 03:19:40;;;;;;;12.50;6.22;;;;;;;11.74;100.00;163635.16;5007806;28;20052;-62
2022/07/14 03:22:06;;;;;;;20.23;7.05;;;;;;;11.71;100.00;163627.06;4994804;28;20022;-62
2022/07/14 03:24:31;;;;;;;16.60;7.88;;;;;;;11.68;100.00;163618.94;4993323;28;20030;-61
2022/07/14 03:26:56;;;;;;;13.70;7.38;;;;;;;11.65;100.00;163610.88;4994334;28;20019;-61
2022/07/14 03:29:22;;;;;;;14.15;5.45;;;;;;;11.62;100.00;163602.75;5006745;28;20092;-61
2022/07/14 03:31:48;;;;;;;25.08;7.57;;;;;;;11.63;100.00;163605.47;5012724;28;20089;-61
2022/07/14 03:34:13;;;;;;;15.23;6.30;;;;;;;11.67;100.00;163614.91;4999812;28;20026;-61
2022/07/14 03:36:39;;;;;;;20.08;7.82;;;;;;;11.67;100.00;163616.22;5010793;28;20042;-62
2022/07/14 03:39:04;;;;;;;20.90;6.50;;;;;;;11.68;100.00;163618.94;5010551;28;20497;-62
2022/07/14 03:41:30;;;;;;;19.30;5.75;;;;;;;11.63;100.00;163605.47;5012368;28;20041;-62
2022/07/14 03:43:55;;;;;;;14.32;6.55;;;;;;;11.55;100.00;163585.16;5014062;28;20022;-62
2022/07/14 03:46:20;;;;;;;9.75;3.83;;;;;;;11.48;100.00;163566.25;5012009;28;20037;-64
2022/07/14 03:48:46;;;;;;;16.25;3.53;;;;;;;11.41;100.00;163547.34;5006646;28;20068;-63
2022/07/14 03:51:11;;;;;;;15.93;5.95;;;;;;;11.32;100.00;163523.09;5019214;28;20064;-63
2022/07/14 03:53:37;;;;;;;10.55;4.90;;;;;;;11.27;100.00;163510.94;5021118;28;20025;-63
2022/07/14 03:56:04;;;;;;;12.38;6.65;;;;;;;11.10;100.00;163466.31;5020105;28;20034;-63
2022/07/14 03:58:29;;;;;;;14.55;6.60;;;;;;;11.19;100.00;163489.31;5021891;28;20393;-63
2022/07/14 04:00:54;;;;;;;11.05;5.95;;;;;;;11.15;100.00;163478.47;5021527;28;20029;-63
2022/07/14 04:03:20;;;;;;;13.20;7.72;;;;;;;11.16;100.00;163482.56;5017969;28;20477;-63
2022/07/14 04:05:48;;;;;;;11.20;5.53;;;;;;;11.18;100.00;163486.59;5022562;28;20029;-63
2022/07/14 04:08:13;;;;;;;13.70;7.00;;;;;;;11.21;100.00;163494.69;5020652;28;20396;-62
2022/07/14 04:10:39;;;;;;;9.27;5.03;;;;;;;11.20;100.00;163492.03;5022085;28;20544;-61
2022/07/14 04:13:04;;;;;;;7.35;3.80;;;;;;;11.13;100.00;163474.44;5017460;28;20498;-59
2022/07/14 04:15:30;;;;;;;11.73;6.13;;;;;;;11.11;100.00;163469.03;5018542;28;20506;-59
2022/07/14 04:17:57;;;;;;;14.32;7.15;;;;;;;11.13;100.00;163474.44;5018100;28;20057;-58
2022/07/14 04:20:23;;;;;;;15.93;5.45;;;;;;;11.17;100.00;163483.91;5016494;28;20088;-59
2022/07/14 04:22:49;;;;;;;21.42;6.45;;;;;;;11.19;100.00;163489.31;5021101;28;20060;-59
2022/07/14 04:25:15;;;;;;;14.00;6.00;;;;;;;11.20;100.00;163492.03;5020993;28;20425;-59
2022/07/14 04:27:40;;;;;;;11.95;6.00;;;;;;;11.25;100.00;163505.50;5020944;28;20025;-59
2022/07/14 04:30:10;;;;;;;14.55;8.70;;;;;;;11.33;100.00;163527.13;5011360;28;20473;-59
2022/07/14 04:32:36;;;;;;;16.45;8.45;;;;;;;11.41;100.00;163547.34;5009720;28;20136;-59
2022/07/14 04:35:02;;;;;;;31.27;9.77;;;;;;;11.50;100.00;163571.69;4991967;28;20497;-59
2022/07/14 04:37:27;;;;;;;32.22;10.77;;;;;;;11.57;100.00;163589.25;4997034;28;20106;-60
2022/07/14 04:39:54;;;;;;;26.58;9.18;;;;;;;11.65;100.00;163609.50;5001356;28;20488;-59
2022/07/14 04:42:21;;;;;;;26.75;11.70;;;;;;;11.72;100.00;163629.78;4995443;28;20052;-59
2022/07/14 04:44:47;;;;;;;25.58;10.25;;;;;;;11.65;100.00;163610.88;5000791;28;20038;-58
2022/07/14 04:47:12;;;;;;;23.52;10.15;;;;;;;11.90;100.00;163675.69;5011787;28;20481;-59
2022/07/14 04:52:22;;;;;;;39.05;12.05;;;;;;;12.20;100.00;163755.47;5012246;28;20052;-59
2022/07/14 04:54:47;;;;;;;23.75;8.85;;;;;;;12.19;100.00;163751.38;5011085;28;20041;-59
2022/07/14 04:57:13;;;;;;;22.33;9.02;;;;;;;12.42;100.00;163810.84;5012453;28;20033;-58
2022/07/14 04:59:38;;;;;;;34.90;12.88;;;;;;;12.52;100.00;163837.88;5011191;28;20024;-59
2022/07/14 05:02:04;;;;;;;22.27;8.25;;;;;;;12.60;100.00;163859.50;5012090;28;20366;-59
2022/07/14 05:04:30;;;;;;;13.95;7.10;;;;;;;12.70;100.00;163886.50;5011087;28;20137;-59
2022/07/14 05:06:57;;;;;;;20.38;7.47;;;;;;;12.81;100.00;163913.56;5012534;28;20080;-59
2022/07/14 05:09:25;;;;;;;24.05;7.00;;;;;;;12.87;100.00;163928.44;5015082;28;20025;-60
2022/07/14 05:11:51;;;;;;;21.05;8.30;;;;;;;12.96;100.00;163954.13;5017328;28;20416;-59
2022/07/14 05:14:16;;;;;;;14.65;6.75;;;;;;;13.00;100.00;163964.91;5021638;28;20025;-59
2022/07/14 05:16:44;;;;;;;20.52;9.77;;;;;;;13.10;100.00;163989.25;5020864;28;20034;-59
2022/07/14 05:19:09;;;;;;;10.75;6.18;;;;;;;13.17;100.00;164008.19;5017621;28;20026;-59
2022/07/14 05:21:35;;;;;;;17.27;7.50;;;;;;;13.14;100.00;164000.09;5020458;28;20048;-59
2022/07/14 05:24:00;;;;;;;24.08;6.40;;;;;;;13.19;100.00;164013.59;5022196;28;20026;-59
2022/07/14 05:26:25;;;;;;;19.55;7.30;;;;;;;13.38;100.00;164062.25;5018427;28;20033;-59
2022/07/14 05:28:52;;;;;;;18.10;7.50;;;;;;;13.44;100.00;164078.56;5022280;28;20044;-59
2022/07/14 05:31:17;;;;;;;20.65;8.45;;;;;;;13.50;100.00;164094.78;5019750;28;20041;-59
2022/07/14 05:33:42;;;;;;;26.42;7.88;;;;;;;13.58;100.00;164115.03;5020404;28;20025;-59
2022/07/14 05:36:08;;;;;;;29.63;7.20;;;;;;;13.63;100.00;164129.94;5020525;28;20041;-59
2022/07/14 05:38:33;;;;;;;26.08;7.50;;;;;;;13.61;100.00;164123.19;5020933;28;20018;-59
2022/07/14 05:41:02;;;;;;;28.30;6.05;;;;;;;13.79;100.00;164171.84;5019475;28;20048;-59
2022/07/14 05:43:29;;;;;;;18.92;6.65;;;;;;;13.91;100.00;164201.63;5022344;28;20017;-59
2022/07/14 05:45:54;;;;;;;28.63;6.38;;;;;;;13.86;100.00;164189.44;5015620;28;20109;-58
2022/07/14 05:48:20;;;;;;;21.10;6.38;;;;;;;14.08;100.00;164246.25;5010724;28;20600;-58
2022/07/14 05:50:45;;;;;;;16.85;5.97;;;;;;;14.22;100.00;164282.78;5010223;28;20045;-59
2022/07/14 05:53:11;;;;;;;22.13;4.45;;;;;;;14.30;100.00;164303.06;5011617;28;20030;-59
2022/07/14 05:55:36;;;;;;;20.38;6.45;;;;;;;14.39;100.00;164327.41;5010263;28;20156;-59
2022/07/14 05:58:01;;;;;;;17.35;6.20;;;;;;;14.49;100.00;164353.13;5011667;28;20034;-59
2022/07/14 06:00:27;;;;;;;33.58;6.20;;;;;;;14.56;100.00;164372.06;5010501;28;20058;-58
2022/07/14 06:02:52;;;;;;;23.35;6.47;;;;;;;14.62;100.00;164386.94;5011776;28;20026;-59
2022/07/14 06:05:17;;;;;;;16.35;4.20;;;;;;;14.67;100.00;164400.50;5013295;28;20042;-58
2022/07/14 06:07:43;;;;;;;12.40;6.53;;;;;;;14.79;100.00;164432.97;5000863;28;20018;-59
2022/07/14 06:10:12;;;;;;;15.80;5.88;;;;;;;14.90;100.00;164461.38;5005411;28;20467;-58
2022/07/14 06:12:38;;;;;;;16.77;5.63;;;;;;;15.01;100.00;164489.81;5022580;28;20025;-59
2022/07/14 06:15:07;;;;;;;16.92;5.10;;;;;;;15.05;100.00;164500.66;5029672;28;20439;-59
2022/07/14 06:17:33;;;;;;;14.32;5.30;;;;;;;15.03;100.00;164495.22;5031111;28;20030;-58
2022/07/14 06:20:06;;;;;;;16.92;5.13;;;;;;;15.33;100.00;164573.75;5029883;28;20033;-59
2022/07/14 06:22:33;;;;;;;15.35;4.13;;;;;;;15.37;100.00;164584.59;5031298;28;20061;-59
2022/07/14 06:24:58;;;;;;;9.32;3.85;;;;;;;15.54;100.00;164630.59;5029676;28;20512;-59
2022/07/14 06:27:23;;;;;;;12.40;3.55;;;;;;;15.73;100.00;164679.38;5030884;28;20029;-58
2022/07/14 06:29:49;;;;;;;10.70;3.15;;;;;;;15.77;100.00;164690.16;5029640;28;20405;-58
2022/07/14 06:32:15;;;;;;;14.20;4.20;;;;;;;15.91;100.00;164725.41;5030761;28;20029;-59
2022/07/14 06:34:40;;;;;;;13.18;3.90;;;;;;;16.08;100.00;164771.47;5029818;28;20021;-58
2022/07/14 06:37:05;;;;;;;12.18;5.30;;;;;;;16.23;100.00;164809.41;5030924;28;20044;-59
2022/07/14 06:39:34;;;;;;;11.00;3.17;;;;;;;16.39;100.00;164852.75;5029520;28;20419;-58
2022/07/14 06:41:59;;;;;;;12.18;2.95;;;;;;;16.93;100.00;164995.03;5031162;28;20033;-58
2022/07/14 06:44:25;;;;;;;10.45;3.05;;;;;;;17.57;100.00;165161.72;5029425;28;20423;-58
2022/07/14 06:46:50;;;;;;;12.30;4.05;;;;;;;17.89;100.00;165245.75;5030819;28;20021;-59
2022/07/14 06:49:16;;;;;;;8.63;2.38;;;;;;;18.42;100.00;165384.09;5030861;28;20022;-59
2022/07/14 06:51:41;;;;;;;14.63;4.68;;;;;;;18.67;100.00;165451.88;5029695;28;20064;-58
2022/07/14 06:54:07;;;;;;;13.57;3.53;;;;;;;18.90;100.00;165511.56;5030639;28;20029;-59
2022/07/14 06:56:32;;;;;;;11.23;3.85;;;;;;;18.87;100.00;165503.47;5029482;28;20496;-58
2022/07/14 06:58:57;;;;;;;20.50;4.03;;;;;;;19.14;100.00;165574.03;5030918;28;20389;-58
2022/07/14 07:01:23;;;;;;;6.72;2.25;;;;;;;19.28;100.00;165610.66;5027099;28;20045;-59
2022/07/14 07:03:48;;;;;;;15.43;5.47;;;;;;;19.69;100.00;165717.84;5014955;28;20022;-59
2022/07/14 07:08:58;;;;;;;12.30;2.67;;;;;;;19.41;100.00;165645.94;5034248;28;20128;-59
2022/07/14 07:11:23;;;;;;;15.07;3.47;;;;;;;19.58;100.00;165689.34;5032833;28;20037;-59
2022/07/14 07:13:48;;;;;;;18.77;4.68;;;;;;;19.75;100.00;165734.13;5034624;28;20021;-59
2022/07/14 07:16:14;;;;;;;13.73;5.03;;;;;;;20.02;100.00;165804.72;5032436;28;20042;-58
2022/07/14 07:18:39;;;;;;;14.93;3.38;;;;;;;20.15;100.00;165840.00;5034417;28;20028;-59
2022/07/14 07:21:06;;;;;;;14.82;3.97;;;;;;;19.92;100.00;165780.28;5032746;28;20396;-59
2022/07/14 07:23:31;;;;;;;8.13;2.30;;;;;;;19.79;100.00;165744.97;5034124;28;20029;-59
2022/07/14 07:25:57;;;;;;;20.40;5.18;;;;;;;19.74;100.00;165731.41;5032674;28;20033;-59
2022/07/14 07:28:22;;;;;;;14.75;3.10;;;;;;;19.63;100.00;165704.25;5033757;28;20049;-59
2022/07/14 07:30:48;;;;;;;21.13;3.53;;;;;;;19.38;100.00;165636.44;5032421;28;20037;-59
2022/07/14 07:33:13;;;;;;;10.32;3.47;;;;;;;19.18;100.00;165584.84;5033911;28;20028;-59
2022/07/14 07:35:39;;;;;;;11.70;3.65;;;;;;;18.62;100.00;165438.34;5032702;28;20092;-59
2022/07/14 07:38:04;;;;;;;12.15;3.53;;;;;;;18.26;100.00;165343.44;5033502;28;20026;-59
2022/07/14 07:40:30;;;;;;;12.18;3.15;;;;;;;18.43;100.00;165388.16;5032582;28;20103;-59
2022/07/14 07:42:55;;;;;;;10.30;2.97;;;;;;;18.27;100.00;165346.16;5034001;28;20481;-59
2022/07/14 07:45:21;;;;;;;13.02;3.15;;;;;;;18.21;100.00;165329.84;5031780;28;20045;-59
2022/07/14 07:47:46;;;;;;;14.63;3.45;;;;;;;17.91;100.00;165251.16;5033975;28;20067;-59
2022/07/14 07:50:12;;;;;;;9.20;3.08;;;;;;;18.13;100.00;165308.19;5032183;28;20052;-59
2022/07/14 07:52:38;;;;;;;13.48;4.03;;;;;;;18.33;100.00;165362.41;5033521;28;20025;-58
2022/07/14 07:55:08;;;;;;;11.25;3.22;;;;;;;18.64;100.00;165443.78;5027085;28;20382;-59
2022/07/14 07:57:34;;;;;;;21.65;5.43;;;;;;;18.96;100.00;165527.88;5013961;28;20029;-59
2022/07/14 07:59:59;;;;;;;5.95;1.75;;;;;;;18.86;100.00;165500.72;5017018;28;20044;-59
2022/07/14 08:02:26;;;;;;;13.82;2.53;;;;;;;18.91;100.00;165514.28;5033402;28;20021;-59
2022/07/14 08:04:52;;;;;;;9.45;3.00;;;;;;;18.93;100.00;165518.38;5032061;28;20343;-58
2022/07/14 08:07:17;;;;;;;8.52;2.88;;;;;;;18.59;100.00;165430.19;5032932;28;20361;-59
2022/07/14 08:09:43;;;;;;;10.75;2.95;;;;;;;18.48;100.00;165400.38;5031939;28;20029;-59
2022/07/14 08:12:08;;;;;;;10.73;2.47;;;;;;;18.81;100.00;165487.13;5032276;28;20025;-59
2022/07/14 08:14:48;;;;;;;12.73;3.47;;;;;;;18.81;100.00;165487.13;5031624;28;20021;-59
2022/07/14 08:17:15;;;;;;;8.65;1.80;;;;;;;18.71;100.00;165462.75;5033038;28;20025;-59
2022/07/14 08:19:40;;;;;;;7.82;3.45;;;;;;;19.13;100.00;165572.69;5031821;28;20030;-59
2022/07/14 08:22:05;;;;;;;7.95;2.58;;;;;;;19.38;100.00;165637.78;5032591;28;20032;-59
2022/07/14 08:24:31;;;;;;;12.23;3.35;;;;;;;19.97;100.00;165793.88;5031898;28;20021;-58
2022/07/14 08:26:56;;;;;;;3.88;1.90;;;;;;;20.28;100.00;165873.94;5032936;28;20096;-58
2022/07/14 08:29:22;;;;;;;16.55;4.03;;;;;;;20.38;100.00;165901.13;5031130;28;20524;-59
2022/07/14 08:31:47;;;;;;;7.03;2.63;;;;;;;20.96;100.00;166051.88;5031609;28;20037;-59
2022/07/14 08:34:12;;;;;;;9.75;2.35;;;;;;;21.54;100.00;166206.69;5032894;28;20464;-59
2022/07/14 08:36:38;;;;;;;11.43;3.67;;;;;;;21.24;100.00;166126.53;5026763;28;20390;-59
2022/07/14 08:39:05;;;;;;;6.00;1.83;;;;;;;20.63;100.00;165964.91;5012668;28;20034;-59
2022/07/14 08:41:33;;;;;;;19.55;3.78;;;;;;;20.81;100.00;166013.84;5021575;28;20052;-59
2022/07/14 08:43:59;;;;;;;6.40;2.47;;;;;;;20.63;100.00;165964.91;5032719;28;20029;-59
2022/07/14 08:46:25;;;;;;;7.03;2.00;;;;;;;20.67;100.00;165975.75;5030772;28;20095;-59
2022/07/14 08:48:52;;;;;;;12.43;2.38;;;;;;;20.90;100.00;166038.25;5032713;28;20021;-58
2022/07/14 08:51:19;;;;;;;8.55;2.33;;;;;;;20.45;100.00;165918.72;5030947;28;20107;-58
2022/07/14 08:53:44;;;;;;;5.88;2.53;;;;;;;20.26;100.00;165868.50;5032138;28;20029;-59
2022/07/14 08:56:11;;;;;;;16.17;3.28;;;;;;;20.17;100.00;165845.44;5030965;28;20045;-59
2022/07/14 08:58:37;;;;;;;12.07;2.03;;;;;;;20.23;100.00;165861.72;5032535;28;20025;-58
2022/07/14 09:01:02;;;;;;;12.10;2.42;;;;;;;20.69;100.00;165981.19;5030469;28;20095;-59
2022/07/14 09:03:28;;;;;;;10.50;2.15;;;;;;;21.11;100.00;166092.56;5032514;28;20021;-59
2022/07/14 09:05:53;;;;;;;12.32;2.05;;;;;;;21.27;100.00;166133.31;5015522;28;20045;-60
2022/07/14 09:08:19;;;;;;;3.05;1.25;;;;;;;21.39;100.00;166165.94;5009182;28;20032;-59
2022/07/14 09:10:45;;;;;;;11.57;2.30;;;;;;;21.89;100.00;166297.75;5010807;28;20048;-59
2022/07/14 09:13:17;;;;;;;6.95;1.75;;;;;;;22.21;100.00;166380.59;4991393;28;20030;-59
2022/07/14 09:15:45;;;;;;;5.80;2.15;;;;;;;22.39;100.00;166429.53;4991016;28;20038;-59
2022/07/14 09:18:19;;;;;;;12.75;2.30;;;;;;;22.29;100.00;166403.69;4992619;28;20034;-59
2022/07/14 09:20:45;;;;;;;7.20;2.20;;;;;;;22.49;100.00;166456.75;4991268;28;20045;-59
2022/07/14 09:23:10;;;;;;;10.07;3.63;;;;;;;22.38;100.00;166426.75;4991741;28;20034;-59
2022/07/14 09:25:37;;;;;;;6.50;2.08;;;;;;;22.27;100.00;166398.22;4988911;28;20018;-59
2022/07/14 09:28:03;;;;;;;4.45;1.73;;;;;;;22.00;100.00;166326.28;4972516;28;20054;-59
2022/07/14 09:30:31;;;;;;;7.28;1.48;;;;;;;22.09;100.00;166350.69;4971584;28;20156;-60
2022/07/14 09:33:02;;;;;;;7.18;1.88;;;;;;;22.29;100.00;166402.34;4984286;28;20098;-59
2022/07/14 09:35:33;;;;;;;33.65;2.33;;;;;;;22.46;100.00;166447.22;4991776;28;20037;-59
2022/07/14 09:37:59;;;;;;;4.75;2.15;;;;;;;22.65;100.00;166497.50;5011580;28;20021;-60
2022/07/14 09:40:26;;;;;;;2.25;0.95;;;;;;;22.74;100.00;166522.00;5010316;28;20038;-59
2022/07/14 09:42:53;;;;;;;8.65;2.00;;;;;;;22.88;100.00;166558.66;5012235;28;20108;-60
2022/07/14 09:45:25;;;;;;;12.70;2.65;;;;;;;22.00;100.00;166327.59;5011601;28;20033;-59
2022/07/14 09:47:51;;;;;;;7.18;1.45;;;;;;;21.92;100.00;166304.53;5010346;28;20524;-59
2022/07/14 09:50:50;;;;;;;17.63;1.73;;;;;;;22.11;100.00;166356.13;5011723;28;20030;-59
2022/07/14 09:53:21;;;;;;;8.38;2.70;;;;;;;21.64;100.00;166232.53;5009137;28;20048;-59
2022/07/14 09:56:06;;;;;;;4.72;2.03;;;;;;;21.22;100.00;166121.13;5010179;28;20042;-59
2022/07/14 09:58:44;;;;;;;4.75;1.60;;;;;;;21.05;100.00;166077.66;5011957;28;20038;-59
2022/07/14 10:01:19;;;;;;;;;;;;;;;21.38;100.00;166163.19;5010522;28;20041;-59
2022/07/14 10:03:48;;;;;;;5.03;1.63;;;;;;;21.44;100.00;166179.50;5011722;28;19909;-59
2022/07/14 10:06:15;;;;;;;11.35;2.65;;;;;;;21.46;100.00;166183.56;5009698;28;20038;-59
2022/07/14 10:08:43;;;;;;;5.53;1.40;;;;;;;21.31;100.00;166144.19;5010368;28;20042;-60
2022/07/14 10:11:10;;;;;;;9.25;2.17;;;;;;;21.26;100.00;166130.63;4991973;28;20565;-59
2022/07/14 10:13:37;;;;;;;11.15;1.60;;;;;;;21.18;100.00;166111.63;4992888;28;20062;-59
2022/07/14 10:16:03;;;;;;;7.05;2.35;;;;;;;21.29;100.00;166138.75;4990314;28;20125;-59
2022/07/14 10:18:28;;;;;;;10.63;2.60;;;;;;;21.67;100.00;166239.31;4990790;28;20113;-59
2022/07/14 10:20:57;;;;;;;9.07;1.95;;;;;;;22.19;100.00;166377.88;4991335;28;20034;-59
2022/07/14 10:23:24;;;;;;;3.25;1.15;;;;;;;22.11;100.00;166354.78;4995068;28;20030;-59
2022/07/14 10:25:52;;;;;;;5.47;1.48;;;;;;;22.60;100.00;166483.94;4990754;28;20046;-59
2022/07/14 10:28:18;;;;;;;10.65;1.80;;;;;;;22.44;100.00;166441.78;4990016;28;20131;-59
2022/07/14 10:31:07;;;;;;;7.50;1.88;;;;;;;22.82;100.00;166543.69;4991419;28;20061;-59
2022/07/14 10:33:53;;;;;;;6.00;1.38;;;;;;;23.05;100.00;166603.50;4992024;28;20034;-59
2022/07/14 10:36:37;;;;;;;3.72;1.75;;;;;;;22.45;100.00;166444.50;4992667;28;20070;-59
2022/07/14 10:39:30;;;;;;;6.70;1.38;;;;;;;22.24;100.00;166388.72;4995701;28;20105;-59
2022/07/14 10:42:06;;;;;;;6.72;1.85;;;;;;;22.11;100.00;166356.13;4993822;28;20498;-59
2022/07/14 10:44:34;;;;;;;3.83;1.30;;;;;;;22.10;100.00;166353.41;5014601;28;20030;-59
2022/07/14 10:47:16;;;;;;;4.78;2.03;;;;;;;22.02;100.00;166333.06;5013928;28;20037;-59
2022/07/14 10:50:01;;;;;;;10.18;2.88;;;;;;;22.22;100.00;166383.31;5013925;28;20117;-59
2022/07/14 10:52:28;;;;;;;4.90;1.08;;;;;;;22.63;100.00;166492.06;5013078;28;20045;-59
2022/07/14 10:55:23;;;;;;;6.88;3.03;;;;;;;22.33;100.00;166413.19;5015133;28;20032;-59
2022/07/14 10:58:01;;;;;;;3.47;1.17;;;;;;;22.34;100.00;166415.91;5013608;28;20042;-59
2022/07/14 11:00:41;;;;;;;4.68;2.10;;;;;;;22.91;100.00;166565.44;5013408;28;20104;-59
2022/07/14 11:03:42;;;;;;;1.77;1.30;;;;;;;23.16;100.00;166630.69;5014690;28;20029;-60
2022/07/14 11:06:11;;;;;;;3.88;1.30;;;;;;;-146.58;100.00;69501.63;5013061;28;20405;-59
2022/07/14 11:08:45;;;;;;;4.85;1.38;;;;;;;-146.58;100.00;69501.63;5014830;28;20034;-59
2022/07/14 11:11:22;;;;;;;3.47;1.02;;;;;;;23.92;97.84;166831.97;5013256;28;20041;-59
2022/07/14 11:14:00;;;;;;;;;;;;;;;24.14;100.00;166890.47;5014991;28;20025;-59
2022/07/14 11:16:47;;;;;;;14.70;3.67;;;;;;;24.60;97.34;167011.56;5013045;28;19921;-59
2022/07/14 11:19:30;;;;;;;12.00;2.78;;;;;;;25.20;92.56;167169.44;5014424;28;20101;-59
2022/07/14 11:22:17;;;;;;;7.50;1.33;;;;;;;24.63;89.97;167018.34;5013101;28;20030;-59
2022/07/14 11:24:56;;;;;;;4.07;1.15;;;;;;;24.12;89.14;166883.69;5014752;28;20026;-59